sensor_id;sensor_type;location;lat;lon;timestamp;P1;durP1;ratioP1;P2;durP2;ratioP2
65641;SDS011;52340;-6.720;108.544;2023-03-14T00:06:09;37.53;;;23.90;;
65641;SDS011;52340;-6.720;108.544;2023-03-14T00:16:44;35.75;;;23.65;;
65641;SDS011;52340;-6.720;108.544;2023-03-14T01:08:44;57.47;;;34.88;;
65641;SDS011;52340;-6.720;108.544;2023-03-14T01:09:49;55.08;;;33.72;;
65641;SDS011;52340;-6.720;108.544;2023-03-14T01:12:02;52.65;;;33.42;;
65641;SDS011;52340;-6.720;108.544;2023-03-14T01:13:04;44.85;;;30.92;;
65641;SDS011;52340;-6.720;108.544;2023-03-14T01:17:26;54.00;;;32.80;;
65641;SDS011;52340;-6.720;108.544;2023-03-14T01:20:48;47.28;;;30.75;;
65641;SDS011;52340;-6.720;108.544;2023-03-14T01:24:06;42.72;;;29.77;;
65641;SDS011;52340;-6.720;108.544;2023-03-14T01:25:08;42.25;;;28.90;;
65641;SDS011;52340;-6.720;108.544;2023-03-14T01:31:42;37.33;;;26.17;;
65641;SDS011;52340;-6.720;108.544;2023-03-14T01:33:48;35.38;;;25.80;;
65641;SDS011;52340;-6.720;108.544;2023-03-14T01:34:50;28.77;;;19.85;;
65641;SDS011;52340;-6.720;108.544;2023-03-14T01:35:51;34.85;;;22.92;;
65641;SDS011;52340;-6.720;108.544;2023-03-14T01:38:03;32.15;;;21.17;;
65641;SDS011;52340;-6.720;108.544;2023-03-14T01:42:34;35.90;;;23.05;;
65641;SDS011;52340;-6.720;108.544;2023-03-14T01:43:36;36.70;;;25.20;;
65641;SDS011;52340;-6.720;108.544;2023-03-14T01:44:48;37.08;;;23.90;;
65641;SDS011;52340;-6.720;108.544;2023-03-14T01:46:52;31.08;;;23.33;;
65641;SDS011;52340;-6.720;108.544;2023-03-14T01:47:56;35.33;;;24.30;;
65641;SDS011;52340;-6.720;108.544;2023-03-14T01:49:00;35.50;;;24.38;;
65641;SDS011;52340;-6.720;108.544;2023-03-14T01:50:06;34.58;;;23.23;;
65641;SDS011;52340;-6.720;108.544;2023-03-14T01:51:09;35.22;;;24.98;;
65641;SDS011;52340;-6.720;108.544;2023-03-14T01:52:13;33.78;;;23.25;;
65641;SDS011;52340;-6.720;108.544;2023-03-14T01:54:29;39.28;;;26.55;;
65641;SDS011;52340;-6.720;108.544;2023-03-14T01:55:35;40.13;;;27.40;;
65641;SDS011;52340;-6.720;108.544;2023-03-14T02:00:09;42.88;;;29.95;;
65641;SDS011;52340;-6.720;108.544;2023-03-14T02:01:11;38.13;;;26.00;;
65641;SDS011;52340;-6.720;108.544;2023-03-14T02:07:56;37.10;;;24.75;;
65641;SDS011;52340;-6.720;108.544;2023-03-14T02:10:03;35.47;;;24.15;;
65641;SDS011;52340;-6.720;108.544;2023-03-14T02:11:05;37.47;;;23.23;;
65641;SDS011;52340;-6.720;108.544;2023-03-14T02:13:18;35.78;;;23.00;;
65641;SDS011;52340;-6.720;108.544;2023-03-14T02:14:26;34.80;;;22.52;;
65641;SDS011;52340;-6.720;108.544;2023-03-14T02:15:28;30.38;;;21.25;;
65641;SDS011;52340;-6.720;108.544;2023-03-14T02:16:29;34.38;;;21.45;;
65641;SDS011;52340;-6.720;108.544;2023-03-14T02:17:31;33.95;;;21.95;;
65641;SDS011;52340;-6.720;108.544;2023-03-14T02:20:47;36.97;;;23.80;;
65641;SDS011;52340;-6.720;108.544;2023-03-14T02:21:54;42.08;;;25.67;;
65641;SDS011;52340;-6.720;108.544;2023-03-14T02:22:57;46.35;;;29.95;;
65641;SDS011;52340;-6.720;108.544;2023-03-14T02:24:00;39.65;;;25.63;;
65641;SDS011;52340;-6.720;108.544;2023-03-14T02:25:04;38.08;;;24.48;;
65641;SDS011;52340;-6.720;108.544;2023-03-14T02:27:21;39.53;;;24.23;;
65641;SDS011;52340;-6.720;108.544;2023-03-14T02:29:33;34.83;;;21.52;;
65641;SDS011;52340;-6.720;108.544;2023-03-14T02:31:46;32.17;;;20.33;;
65641;SDS011;52340;-6.720;108.544;2023-03-14T02:35:06;30.85;;;19.70;;
65641;SDS011;52340;-6.720;108.544;2023-03-14T02:36:11;28.75;;;18.75;;
65641;SDS011;52340;-6.720;108.544;2023-03-14T02:37:14;27.65;;;18.40;;
65641;SDS011;52340;-6.720;108.544;2023-03-14T02:38:19;28.23;;;19.77;;
65641;SDS011;52340;-6.720;108.544;2023-03-14T02:39:23;31.23;;;19.25;;
65641;SDS011;52340;-6.720;108.544;2023-03-14T02:40:28;31.25;;;19.90;;
65641;SDS011;52340;-6.720;108.544;2023-03-14T02:41:30;28.88;;;19.77;;
65641;SDS011;52340;-6.720;108.544;2023-03-14T02:42:33;31.60;;;20.27;;
65641;SDS011;52340;-6.720;108.544;2023-03-14T02:43:35;33.28;;;22.58;;
65641;SDS011;52340;-6.720;108.544;2023-03-14T02:44:46;29.63;;;19.77;;
65641;SDS011;52340;-6.720;108.544;2023-03-14T02:45:49;34.22;;;21.13;;
65641;SDS011;52340;-6.720;108.544;2023-03-14T02:46:51;28.85;;;20.05;;
65641;SDS011;52340;-6.720;108.544;2023-03-14T02:49:03;28.13;;;20.20;;
65641;SDS011;52340;-6.720;108.544;2023-03-14T02:52:13;30.13;;;19.40;;
65641;SDS011;52340;-6.720;108.544;2023-03-14T02:54:16;26.60;;;18.45;;
65641;SDS011;52340;-6.720;108.544;2023-03-14T02:55:20;25.95;;;18.13;;
65641;SDS011;52340;-6.720;108.544;2023-03-14T02:56:22;27.08;;;18.20;;
65641;SDS011;52340;-6.720;108.544;2023-03-14T02:58:28;27.67;;;19.40;;
65641;SDS011;52340;-6.720;108.544;2023-03-14T02:59:30;25.67;;;17.88;;
65641;SDS011;52340;-6.720;108.544;2023-03-14T03:00:32;26.10;;;18.33;;
65641;SDS011;52340;-6.720;108.544;2023-03-14T03:02:38;26.38;;;18.63;;
65641;SDS011;52340;-6.720;108.544;2023-03-14T03:03:40;31.92;;;17.95;;
65641;SDS011;52340;-6.720;108.544;2023-03-14T03:05:53;26.00;;;17.58;;
65641;SDS011;52340;-6.720;108.544;2023-03-14T03:06:54;23.90;;;18.08;;
65641;SDS011;52340;-6.720;108.544;2023-03-14T03:07:54;27.58;;;18.65;;
65641;SDS011;52340;-6.720;108.544;2023-03-14T03:11:16;24.88;;;18.23;;
65641;SDS011;52340;-6.720;108.544;2023-03-14T03:15:55;26.02;;;18.17;;
65641;SDS011;52340;-6.720;108.544;2023-03-14T03:16:57;28.40;;;18.17;;
65641;SDS011;52340;-6.720;108.544;2023-03-14T03:19:08;30.67;;;18.63;;
65641;SDS011;52340;-6.720;108.544;2023-03-14T03:26:01;25.58;;;18.10;;
65641;SDS011;52340;-6.720;108.544;2023-03-14T03:27:03;26.95;;;18.30;;
65641;SDS011;52340;-6.720;108.544;2023-03-14T03:28:04;29.08;;;18.65;;
65641;SDS011;52340;-6.720;108.544;2023-03-14T03:30:07;26.58;;;19.65;;
65641;SDS011;52340;-6.720;108.544;2023-03-14T03:34:46;28.52;;;19.13;;
65641;SDS011;52340;-6.720;108.544;2023-03-14T03:36:57;28.67;;;18.02;;
65641;SDS011;52340;-6.720;108.544;2023-03-14T04:14:05;25.77;;;18.13;;
65641;SDS011;52340;-6.720;108.544;2023-03-14T04:15:07;25.75;;;17.42;;
65641;SDS011;52340;-6.720;108.544;2023-03-14T04:16:13;24.45;;;17.92;;
65641;SDS011;52340;-6.720;108.544;2023-03-14T04:17:17;25.83;;;17.48;;
65641;SDS011;52340;-6.720;108.544;2023-03-14T04:18:19;27.55;;;18.13;;
65641;SDS011;52340;-6.720;108.544;2023-03-14T04:25:07;25.65;;;17.23;;
65641;SDS011;52340;-6.720;108.544;2023-03-14T04:35:19;23.85;;;15.57;;
65641;SDS011;52340;-6.720;108.544;2023-03-14T04:36:21;23.70;;;16.65;;
65641;SDS011;52340;-6.720;108.544;2023-03-14T04:39:43;25.10;;;15.60;;
65641;SDS011;52340;-6.720;108.544;2023-03-14T04:40:44;27.00;;;16.13;;
65641;SDS011;52340;-6.720;108.544;2023-03-14T05:58:31;28.23;;;18.60;;
65641;SDS011;52340;-6.720;108.544;2023-03-14T06:45:05;22.63;;;13.63;;
65641;SDS011;52340;-6.720;108.544;2023-03-14T06:57:47;20.50;;;12.40;;
65641;SDS011;52340;-6.720;108.544;2023-03-14T07:49:06;17.85;;;10.25;;
65641;SDS011;52340;-6.720;108.544;2023-03-14T07:50:08;15.75;;;10.55;;
65641;SDS011;52340;-6.720;108.544;2023-03-14T07:51:10;16.88;;;11.02;;
65641;SDS011;52340;-6.720;108.544;2023-03-14T07:52:12;17.20;;;11.50;;
65641;SDS011;52340;-6.720;108.544;2023-03-14T07:53:14;20.65;;;12.23;;
65641;SDS011;52340;-6.720;108.544;2023-03-14T07:54:15;18.58;;;11.57;;
65641;SDS011;52340;-6.720;108.544;2023-03-14T07:55:17;18.38;;;11.00;;
65641;SDS011;52340;-6.720;108.544;2023-03-14T07:56:19;19.10;;;11.68;;
65641;SDS011;52340;-6.720;108.544;2023-03-14T07:57:21;17.73;;;11.48;;
65641;SDS011;52340;-6.720;108.544;2023-03-14T07:58:22;20.73;;;12.82;;
65641;SDS011;52340;-6.720;108.544;2023-03-14T07:59:24;20.50;;;12.10;;
65641;SDS011;52340;-6.720;108.544;2023-03-14T08:00:26;19.60;;;12.20;;
65641;SDS011;52340;-6.720;108.544;2023-03-14T08:01:28;23.33;;;13.90;;
65641;SDS011;52340;-6.720;108.544;2023-03-14T08:02:30;21.83;;;13.07;;
65641;SDS011;52340;-6.720;108.544;2023-03-14T08:03:31;26.88;;;14.15;;
65641;SDS011;52340;-6.720;108.544;2023-03-14T08:04:35;21.70;;;13.73;;
65641;SDS011;52340;-6.720;108.544;2023-03-14T08:05:37;20.13;;;12.50;;
65641;SDS011;52340;-6.720;108.544;2023-03-14T08:06:39;20.65;;;12.27;;
65641;SDS011;52340;-6.720;108.544;2023-03-14T08:07:40;20.65;;;12.98;;
65641;SDS011;52340;-6.720;108.544;2023-03-14T08:08:42;21.45;;;13.02;;
65641;SDS011;52340;-6.720;108.544;2023-03-14T08:09:44;20.52;;;12.32;;
65641;SDS011;52340;-6.720;108.544;2023-03-14T08:10:46;20.35;;;12.80;;
65641;SDS011;52340;-6.720;108.544;2023-03-14T08:11:47;19.27;;;12.27;;
65641;SDS011;52340;-6.720;108.544;2023-03-14T08:12:49;20.85;;;14.07;;
65641;SDS011;52340;-6.720;108.544;2023-03-14T08:13:51;33.75;;;17.17;;
65641;SDS011;52340;-6.720;108.544;2023-03-14T08:16:04;24.90;;;14.63;;
65641;SDS011;52340;-6.720;108.544;2023-03-14T08:17:06;21.10;;;12.75;;
65641;SDS011;52340;-6.720;108.544;2023-03-14T08:18:07;19.70;;;12.10;;
65641;SDS011;52340;-6.720;108.544;2023-03-14T08:19:09;21.05;;;12.40;;
65641;SDS011;52340;-6.720;108.544;2023-03-14T08:20:13;20.55;;;12.85;;
65641;SDS011;52340;-6.720;108.544;2023-03-14T08:21:15;19.63;;;12.80;;
65641;SDS011;52340;-6.720;108.544;2023-03-14T08:22:16;18.08;;;11.65;;
65641;SDS011;52340;-6.720;108.544;2023-03-14T08:24:22;19.00;;;12.00;;
65641;SDS011;52340;-6.720;108.544;2023-03-14T08:25:23;18.40;;;12.50;;
65641;SDS011;52340;-6.720;108.544;2023-03-14T08:26:25;18.75;;;11.88;;
65641;SDS011;52340;-6.720;108.544;2023-03-14T08:27:27;18.85;;;11.57;;
65641;SDS011;52340;-6.720;108.544;2023-03-14T08:28:29;20.70;;;12.05;;
65641;SDS011;52340;-6.720;108.544;2023-03-14T08:29:30;17.80;;;11.07;;
65641;SDS011;52340;-6.720;108.544;2023-03-14T08:30:32;22.17;;;12.65;;
65641;SDS011;52340;-6.720;108.544;2023-03-14T08:31:34;20.00;;;12.07;;
65641;SDS011;52340;-6.720;108.544;2023-03-14T08:32:36;22.50;;;12.93;;
65641;SDS011;52340;-6.720;108.544;2023-03-14T08:33:38;21.10;;;13.57;;
65641;SDS011;52340;-6.720;108.544;2023-03-14T08:34:39;20.50;;;13.50;;
65641;SDS011;52340;-6.720;108.544;2023-03-14T08:35:51;21.13;;;13.73;;
65641;SDS011;52340;-6.720;108.544;2023-03-14T08:36:53;21.90;;;13.68;;
65641;SDS011;52340;-6.720;108.544;2023-03-14T08:37:55;22.55;;;13.52;;
65641;SDS011;52340;-6.720;108.544;2023-03-14T08:38:56;21.17;;;13.68;;
65641;SDS011;52340;-6.720;108.544;2023-03-14T08:40:01;18.70;;;12.02;;
65641;SDS011;52340;-6.720;108.544;2023-03-14T08:41:04;21.02;;;14.07;;
65641;SDS011;52340;-6.720;108.544;2023-03-14T08:42:06;19.88;;;13.77;;
65641;SDS011;52340;-6.720;108.544;2023-03-14T08:43:08;23.75;;;14.50;;
65641;SDS011;52340;-6.720;108.544;2023-03-14T08:44:10;25.05;;;14.27;;
65641;SDS011;52340;-6.720;108.544;2023-03-14T08:45:13;19.55;;;13.98;;
65641;SDS011;52340;-6.720;108.544;2023-03-14T08:46:19;21.27;;;13.85;;
65641;SDS011;52340;-6.720;108.544;2023-03-14T08:47:21;23.70;;;14.65;;
65641;SDS011;52340;-6.720;108.544;2023-03-14T08:48:23;23.15;;;14.70;;
65641;SDS011;52340;-6.720;108.544;2023-03-14T08:49:24;22.08;;;12.93;;
65641;SDS011;52340;-6.720;108.544;2023-03-14T08:50:26;20.17;;;13.07;;
65641;SDS011;52340;-6.720;108.544;2023-03-14T08:51:30;22.15;;;13.63;;
65641;SDS011;52340;-6.720;108.544;2023-03-14T08:52:32;24.35;;;13.38;;
65641;SDS011;52340;-6.720;108.544;2023-03-14T08:53:33;21.95;;;12.93;;
65641;SDS011;52340;-6.720;108.544;2023-03-14T08:55:45;24.38;;;14.15;;
65641;SDS011;52340;-6.720;108.544;2023-03-14T08:56:47;22.60;;;14.43;;
65641;SDS011;52340;-6.720;108.544;2023-03-14T08:57:49;25.40;;;14.93;;
65641;SDS011;52340;-6.720;108.544;2023-03-14T08:58:53;24.90;;;15.55;;
65641;SDS011;52340;-6.720;108.544;2023-03-14T08:59:55;27.50;;;16.70;;
65641;SDS011;52340;-6.720;108.544;2023-03-14T09:00:58;23.42;;;14.98;;
65641;SDS011;52340;-6.720;108.544;2023-03-14T09:01:59;24.95;;;14.90;;
65641;SDS011;52340;-6.720;108.544;2023-03-14T09:03:01;22.13;;;14.52;;
65641;SDS011;52340;-6.720;108.544;2023-03-14T09:05:09;23.48;;;13.98;;
65641;SDS011;52340;-6.720;108.544;2023-03-14T09:06:10;23.40;;;14.85;;
65641;SDS011;52340;-6.720;108.544;2023-03-14T09:07:14;25.02;;;13.98;;
65641;SDS011;52340;-6.720;108.544;2023-03-14T09:10:26;21.03;;;13.27;;
65641;SDS011;52340;-6.720;108.544;2023-03-14T09:11:27;20.90;;;13.70;;
65641;SDS011;52340;-6.720;108.544;2023-03-14T09:12:29;19.63;;;13.48;;
65641;SDS011;52340;-6.720;108.544;2023-03-14T09:14:41;24.38;;;14.32;;
65641;SDS011;52340;-6.720;108.544;2023-03-14T09:15:43;27.08;;;15.00;;
65641;SDS011;52340;-6.720;108.544;2023-03-14T09:16:44;27.05;;;14.60;;
65641;SDS011;52340;-6.720;108.544;2023-03-14T09:17:46;28.55;;;15.88;;
65641;SDS011;52340;-6.720;108.544;2023-03-14T09:18:48;28.02;;;16.42;;
65641;SDS011;52340;-6.720;108.544;2023-03-14T09:19:49;23.67;;;13.18;;
65641;SDS011;52340;-6.720;108.544;2023-03-14T09:20:51;22.88;;;13.60;;
65641;SDS011;52340;-6.720;108.544;2023-03-14T09:21:53;25.65;;;14.27;;
65641;SDS011;52340;-6.720;108.544;2023-03-14T09:22:57;22.42;;;13.75;;
65641;SDS011;52340;-6.720;108.544;2023-03-14T09:23:59;22.65;;;13.45;;
65641;SDS011;52340;-6.720;108.544;2023-03-14T09:25:01;24.35;;;13.18;;
65641;SDS011;52340;-6.720;108.544;2023-03-14T09:26:02;20.10;;;13.05;;
65641;SDS011;52340;-6.720;108.544;2023-03-14T09:27:04;22.20;;;13.20;;
65641;SDS011;52340;-6.720;108.544;2023-03-14T09:28:06;21.02;;;12.07;;
65641;SDS011;52340;-6.720;108.544;2023-03-14T09:29:08;21.27;;;13.07;;
65641;SDS011;52340;-6.720;108.544;2023-03-14T09:30:10;22.55;;;12.60;;
65641;SDS011;52340;-6.720;108.544;2023-03-14T09:31:12;21.25;;;12.98;;
65641;SDS011;52340;-6.720;108.544;2023-03-14T09:32:14;25.52;;;14.23;;
65641;SDS011;52340;-6.720;108.544;2023-03-14T09:33:15;22.75;;;13.52;;
65641;SDS011;52340;-6.720;108.544;2023-03-14T09:34:17;26.27;;;14.48;;
65641;SDS011;52340;-6.720;108.544;2023-03-14T09:35:19;27.48;;;15.23;;
65641;SDS011;52340;-6.720;108.544;2023-03-14T09:36:21;26.55;;;14.40;;
65641;SDS011;52340;-6.720;108.544;2023-03-14T09:37:22;29.85;;;15.73;;
65641;SDS011;52340;-6.720;108.544;2023-03-14T09:38:26;24.48;;;13.48;;
65641;SDS011;52340;-6.720;108.544;2023-03-14T09:39:28;26.90;;;14.43;;
65641;SDS011;52340;-6.720;108.544;2023-03-14T09:40:31;21.20;;;12.43;;
65641;SDS011;52340;-6.720;108.544;2023-03-14T09:42:34;25.40;;;15.17;;
65641;SDS011;52340;-6.720;108.544;2023-03-14T09:43:38;25.15;;;15.77;;
65641;SDS011;52340;-6.720;108.544;2023-03-14T09:44:42;22.58;;;14.55;;
65641;SDS011;52340;-6.720;108.544;2023-03-14T09:45:47;24.52;;;14.98;;
65641;SDS011;52340;-6.720;108.544;2023-03-14T09:46:50;24.42;;;15.07;;
65641;SDS011;52340;-6.720;108.544;2023-03-14T09:47:53;22.98;;;13.50;;
65641;SDS011;52340;-6.720;108.544;2023-03-14T09:48:56;24.73;;;13.95;;
65641;SDS011;52340;-6.720;108.544;2023-03-14T09:49:57;25.90;;;14.77;;
65641;SDS011;52340;-6.720;108.544;2023-03-14T09:51:01;23.70;;;14.32;;
65641;SDS011;52340;-6.720;108.544;2023-03-14T09:52:07;24.95;;;13.18;;
65641;SDS011;52340;-6.720;108.544;2023-03-14T09:53:14;22.52;;;12.30;;
65641;SDS011;52340;-6.720;108.544;2023-03-14T09:54:26;23.42;;;13.07;;
65641;SDS011;52340;-6.720;108.544;2023-03-14T09:55:22;26.27;;;13.77;;
65641;SDS011;52340;-6.720;108.544;2023-03-14T09:56:25;27.05;;;13.45;;
65641;SDS011;52340;-6.720;108.544;2023-03-14T09:57:28;27.40;;;14.93;;
65641;SDS011;52340;-6.720;108.544;2023-03-14T09:58:30;27.45;;;14.45;;
65641;SDS011;52340;-6.720;108.544;2023-03-14T09:59:32;25.33;;;13.90;;
65641;SDS011;52340;-6.720;108.544;2023-03-14T10:00:36;21.80;;;12.45;;
65641;SDS011;52340;-6.720;108.544;2023-03-14T10:01:37;23.88;;;12.55;;
65641;SDS011;52340;-6.720;108.544;2023-03-14T10:02:40;24.45;;;14.32;;
65641;SDS011;52340;-6.720;108.544;2023-03-14T10:03:42;27.42;;;14.30;;
65641;SDS011;52340;-6.720;108.544;2023-03-14T10:04:47;30.15;;;14.57;;
65641;SDS011;52340;-6.720;108.544;2023-03-14T10:05:51;27.42;;;14.05;;
65641;SDS011;52340;-6.720;108.544;2023-03-14T10:06:53;24.10;;;13.20;;
65641;SDS011;52340;-6.720;108.544;2023-03-14T10:07:55;22.60;;;12.75;;
65641;SDS011;52340;-6.720;108.544;2023-03-14T10:08:57;22.90;;;13.55;;
65641;SDS011;52340;-6.720;108.544;2023-03-14T10:10:00;24.00;;;13.30;;
65641;SDS011;52340;-6.720;108.544;2023-03-14T10:11:12;23.80;;;13.43;;
65641;SDS011;52340;-6.720;108.544;2023-03-14T10:13:17;26.52;;;15.35;;
65641;SDS011;52340;-6.720;108.544;2023-03-14T10:14:30;29.55;;;16.98;;
65641;SDS011;52340;-6.720;108.544;2023-03-14T10:15:33;30.58;;;17.23;;
65641;SDS011;52340;-6.720;108.544;2023-03-14T10:16:36;29.67;;;17.83;;
65641;SDS011;52340;-6.720;108.544;2023-03-14T10:17:39;29.42;;;17.48;;
65641;SDS011;52340;-6.720;108.544;2023-03-14T10:18:44;32.95;;;18.75;;
65641;SDS011;52340;-6.720;108.544;2023-03-14T10:19:52;34.40;;;19.35;;
65641;SDS011;52340;-6.720;108.544;2023-03-14T10:21:05;34.58;;;19.55;;
65641;SDS011;52340;-6.720;108.544;2023-03-14T10:22:12;33.75;;;20.00;;
65641;SDS011;52340;-6.720;108.544;2023-03-14T10:23:20;34.28;;;21.25;;
65641;SDS011;52340;-6.720;108.544;2023-03-14T10:24:26;31.40;;;19.58;;
65641;SDS011;52340;-6.720;108.544;2023-03-14T10:26:51;37.28;;;21.23;;
65641;SDS011;52340;-6.720;108.544;2023-03-14T10:27:54;34.50;;;20.05;;
65641;SDS011;52340;-6.720;108.544;2023-03-14T10:29:01;33.63;;;20.08;;
65641;SDS011;52340;-6.720;108.544;2023-03-14T10:30:04;33.85;;;20.77;;
65641;SDS011;52340;-6.720;108.544;2023-03-14T10:31:07;40.20;;;23.23;;
65641;SDS011;52340;-6.720;108.544;2023-03-14T10:32:10;36.55;;;22.00;;
65641;SDS011;52340;-6.720;108.544;2023-03-14T10:33:21;39.03;;;22.80;;
65641;SDS011;52340;-6.720;108.544;2023-03-14T10:38:38;41.60;;;25.77;;
65641;SDS011;52340;-6.720;108.544;2023-03-14T10:39:41;45.83;;;26.00;;
65641;SDS011;52340;-6.720;108.544;2023-03-14T10:40:46;47.08;;;28.33;;
65641;SDS011;52340;-6.720;108.544;2023-03-14T10:41:49;45.50;;;29.65;;
65641;SDS011;52340;-6.720;108.544;2023-03-14T10:42:54;45.97;;;28.95;;
65641;SDS011;52340;-6.720;108.544;2023-03-14T10:43:58;48.75;;;30.35;;
65641;SDS011;52340;-6.720;108.544;2023-03-14T10:45:02;48.92;;;30.63;;
65641;SDS011;52340;-6.720;108.544;2023-03-14T10:46:06;46.60;;;28.85;;
65641;SDS011;52340;-6.720;108.544;2023-03-14T10:49:23;41.33;;;25.75;;
65641;SDS011;52340;-6.720;108.544;2023-03-14T10:50:28;47.25;;;29.83;;
65641;SDS011;52340;-6.720;108.544;2023-03-14T10:51:31;52.55;;;30.52;;
65641;SDS011;52340;-6.720;108.544;2023-03-14T10:52:33;61.38;;;33.40;;
65641;SDS011;52340;-6.720;108.544;2023-03-14T11:50:42;44.58;;;24.30;;
65641;SDS011;52340;-6.720;108.544;2023-03-14T12:13:56;46.17;;;25.00;;
65641;SDS011;52340;-6.720;108.544;2023-03-14T12:32:32;35.22;;;20.45;;
65641;SDS011;52340;-6.720;108.544;2023-03-14T12:34:48;42.60;;;23.88;;
65641;SDS011;52340;-6.720;108.544;2023-03-14T14:43:28;40.28;;;20.63;;
65641;SDS011;52340;-6.720;108.544;2023-03-14T16:29:51;45.30;;;25.40;;
65641;SDS011;52340;-6.720;108.544;2023-03-14T16:43:44;39.17;;;22.20;;
65641;SDS011;52340;-6.720;108.544;2023-03-14T16:58:44;31.55;;;18.92;;
65641;SDS011;52340;-6.720;108.544;2023-03-14T23:58:25;46.83;;;29.95;;
